Meath Environmental Platform

Observations for Trim Market St

Time AQI Temp °C Hum % Pres Pa CO μg/m³ H₂S μg/m³ NO μg/m³ NO₂ μg/m³ O₃ μg/m³ SO₂ μg/m³ PM1 μg/m³ PM2.5 μg/m³ PM10 μg/m³
Tuesday 11 August 2026
19:54 3 28.1 33 66,113 0 8.45 0.78 25.81 59.54 0 2.85 5.34 6.68
19:53 3 28.1 33 66,092 0 9.38 0.78 28.25 61.31 0 2.14 5.89 6.68
19:48 3 28.2 32 66,113 0 10.44 0.79 28.92 59.21 0 2.85 5.37 5.82
19:41 3 28.5 32 66,094 0 10.97 0.75 26.57 59.42 0 1.43 4.86 5.34
19:39 3 28.6 32 66,147 0 10.29 0.74 24.34 60.93 0 2.14 4.87 5.81
19:37 3 28.7 31 66,145 0 10.55 0.73 25.15 62.04 0 2.85 5.96 6.56
19:35 3 28.7 31 66,125 0 10.85 0.73 25.73 68.29 0 2.85 7.59 8.38
19:34 3 28.8 31 66,131 0 11.06 0.72 24.13 61.38 0 2.14 5.97 6.57
19:33 3 28.9 31 66,135 0 9.66 0.7 25.96 63.23 0 2.85 5.98 6.57
19:32 3 28.9 31 66,143 0 10.95 0.7 23.61 62.23 0 2.14 5.43 5.98
19:31 3 29 31 66,147 0 12.04 0.69 24.1 67.47 0 2.14 4.9 5.39
19:30 3 29 31 66,157 0 13.05 0.69 26.55 61.36 0 1.43 4.9 5.39
19:29 3 29 31 66,169 0 11.96 0.69 26.59 64.5 0 1.43 4.36 4.8
19:28 3 29.1 31 66,184 0 12.01 0.68 27.7 64.77 0 1.43 4.91 7.52
19:27 3 29.1 30 66,178 0 12.43 0.68 25.76 61.86 0 2.14 5.46 6
19:26 3 29.2 30 66,194 0 13.26 0.67 26.55 62.67 0 1.43 4.92 5.41
19:25 3 29.3 30 66,184 0 13.55 0.65 26.51 66.64 0 2.14 6.01 6.61
19:24 3 29.3 30 66,175 0 10.39 0.66 24.02 63.93 0 1.43 4.93 5.43
19:23 3 29.4 30 66,192 0 9.29 0.64 20.65 66.63 0 1.43 5.48 6.03
19:22 3 29.4 30 66,184 0 12.45 0.64 26.83 62.04 0 1.43 4.94 5.43